sensor_id;sensor_type;location;lat;lon;timestamp;P1;durP1;ratioP1;P2;durP2;ratioP2
60006;SDS011;45863;50.336;3.536;2022-12-18T00:00:03;103.95;;;44.00;;
60006;SDS011;45863;50.336;3.536;2022-12-18T00:02:29;96.68;;;39.75;;
60006;SDS011;45863;50.336;3.536;2022-12-18T00:04:54;93.97;;;41.40;;
60006;SDS011;45863;50.336;3.536;2022-12-18T00:07:19;94.80;;;41.08;;
60006;SDS011;45863;50.336;3.536;2022-12-18T00:09:45;95.70;;;41.25;;
60006;SDS011;45863;50.336;3.536;2022-12-18T00:12:10;101.28;;;42.88;;
60006;SDS011;45863;50.336;3.536;2022-12-18T00:14:35;91.75;;;40.45;;
60006;SDS011;45863;50.336;3.536;2022-12-18T00:17:01;85.63;;;37.85;;
60006;SDS011;45863;50.336;3.536;2022-12-18T00:19:27;85.57;;;36.00;;
60006;SDS011;45863;50.336;3.536;2022-12-18T00:21:53;97.07;;;38.10;;
60006;SDS011;45863;50.336;3.536;2022-12-18T00:24:18;92.47;;;41.22;;
60006;SDS011;45863;50.336;3.536;2022-12-18T00:26:43;100.35;;;40.38;;
60006;SDS011;45863;50.336;3.536;2022-12-18T00:29:12;98.07;;;40.40;;
60006;SDS011;45863;50.336;3.536;2022-12-18T00:31:39;95.50;;;41.53;;
60006;SDS011;45863;50.336;3.536;2022-12-18T00:34:04;99.82;;;42.03;;
60006;SDS011;45863;50.336;3.536;2022-12-18T00:36:30;96.15;;;41.83;;
60006;SDS011;45863;50.336;3.536;2022-12-18T00:38:57;87.07;;;39.78;;
60006;SDS011;45863;50.336;3.536;2022-12-18T00:41:22;92.63;;;40.22;;
60006;SDS011;45863;50.336;3.536;2022-12-18T00:44:06;88.68;;;40.10;;
60006;SDS011;45863;50.336;3.536;2022-12-18T00:46:33;84.63;;;38.75;;
60006;SDS011;45863;50.336;3.536;2022-12-18T00:48:58;88.45;;;40.13;;
60006;SDS011;45863;50.336;3.536;2022-12-18T00:51:24;90.32;;;41.83;;
60006;SDS011;45863;50.336;3.536;2022-12-18T00:53:49;91.70;;;39.42;;
60006;SDS011;45863;50.336;3.536;2022-12-18T00:56:14;100.78;;;41.75;;
60006;SDS011;45863;50.336;3.536;2022-12-18T00:58:40;92.22;;;39.65;;
60006;SDS011;45863;50.336;3.536;2022-12-18T01:01:05;98.05;;;42.08;;
60006;SDS011;45863;50.336;3.536;2022-12-18T01:03:30;97.75;;;40.85;;
60006;SDS011;45863;50.336;3.536;2022-12-18T01:05:56;93.03;;;41.17;;
60006;SDS011;45863;50.336;3.536;2022-12-18T01:08:21;92.38;;;39.17;;
60006;SDS011;45863;50.336;3.536;2022-12-18T01:10:46;96.35;;;40.55;;
60006;SDS011;45863;50.336;3.536;2022-12-18T01:13:12;97.47;;;40.90;;
60006;SDS011;45863;50.336;3.536;2022-12-18T01:15:37;87.78;;;39.30;;
60006;SDS011;45863;50.336;3.536;2022-12-18T01:18:02;97.03;;;38.92;;
60006;SDS011;45863;50.336;3.536;2022-12-18T01:20:27;85.60;;;38.83;;
60006;SDS011;45863;50.336;3.536;2022-12-18T01:22:53;94.28;;;39.35;;
60006;SDS011;45863;50.336;3.536;2022-12-18T01:25:18;85.32;;;38.15;;
60006;SDS011;45863;50.336;3.536;2022-12-18T01:27:43;88.13;;;37.42;;
60006;SDS011;45863;50.336;3.536;2022-12-18T01:30:08;97.00;;;39.33;;
60006;SDS011;45863;50.336;3.536;2022-12-18T01:32:35;90.88;;;39.22;;
60006;SDS011;45863;50.336;3.536;2022-12-18T01:35:00;92.55;;;40.80;;
60006;SDS011;45863;50.336;3.536;2022-12-18T01:37:26;84.40;;;38.63;;
60006;SDS011;45863;50.336;3.536;2022-12-18T01:39:52;88.72;;;37.28;;
60006;SDS011;45863;50.336;3.536;2022-12-18T01:42:19;90.35;;;37.63;;
60006;SDS011;45863;50.336;3.536;2022-12-18T01:45:04;84.85;;;36.83;;
60006;SDS011;45863;50.336;3.536;2022-12-18T01:49:59;88.10;;;37.15;;
60006;SDS011;45863;50.336;3.536;2022-12-18T01:52:28;89.20;;;37.97;;
60006;SDS011;45863;50.336;3.536;2022-12-18T01:54:55;86.70;;;37.43;;
60006;SDS011;45863;50.336;3.536;2022-12-18T01:57:21;87.03;;;36.42;;
60006;SDS011;45863;50.336;3.536;2022-12-18T01:59:47;84.13;;;38.17;;
60006;SDS011;45863;50.336;3.536;2022-12-18T02:02:14;85.18;;;37.95;;
60006;SDS011;45863;50.336;3.536;2022-12-18T02:04:40;78.22;;;34.47;;
60006;SDS011;45863;50.336;3.536;2022-12-18T02:07:08;84.18;;;36.47;;
60006;SDS011;45863;50.336;3.536;2022-12-18T02:09:38;83.53;;;36.40;;
60006;SDS011;45863;50.336;3.536;2022-12-18T02:12:08;83.57;;;36.20;;
60006;SDS011;45863;50.336;3.536;2022-12-18T02:14:38;80.82;;;35.80;;
60006;SDS011;45863;50.336;3.536;2022-12-18T02:17:06;90.30;;;37.45;;
60006;SDS011;45863;50.336;3.536;2022-12-18T02:27:30;81.10;;;34.47;;
60006;SDS011;45863;50.336;3.536;2022-12-18T02:29:57;80.68;;;34.10;;
60006;SDS011;45863;50.336;3.536;2022-12-18T02:32:25;84.72;;;37.50;;
60006;SDS011;45863;50.336;3.536;2022-12-18T02:34:52;78.88;;;35.83;;
60006;SDS011;45863;50.336;3.536;2022-12-18T02:37:19;78.93;;;34.97;;
60006;SDS011;45863;50.336;3.536;2022-12-18T02:39:46;81.10;;;37.25;;
60006;SDS011;45863;50.336;3.536;2022-12-18T02:42:12;73.88;;;34.30;;
60006;SDS011;45863;50.336;3.536;2022-12-18T02:44:44;83.43;;;34.70;;
60006;SDS011;45863;50.336;3.536;2022-12-18T02:47:11;69.22;;;31.50;;
60006;SDS011;45863;50.336;3.536;2022-12-18T02:52:35;67.18;;;31.33;;
60006;SDS011;45863;50.336;3.536;2022-12-18T02:55:07;80.25;;;34.13;;
60006;SDS011;45863;50.336;3.536;2022-12-18T02:57:54;80.53;;;33.05;;
60006;SDS011;45863;50.336;3.536;2022-12-18T03:02:51;69.25;;;30.52;;
60006;SDS011;45863;50.336;3.536;2022-12-18T03:07:46;73.22;;;32.67;;
60006;SDS011;45863;50.336;3.536;2022-12-18T03:10:14;76.97;;;32.63;;
60006;SDS011;45863;50.336;3.536;2022-12-18T03:12:47;80.20;;;32.33;;
60006;SDS011;45863;50.336;3.536;2022-12-18T03:15:20;72.57;;;31.95;;
60006;SDS011;45863;50.336;3.536;2022-12-18T03:18:32;73.68;;;32.45;;
60006;SDS011;45863;50.336;3.536;2022-12-18T03:20:36;71.22;;;31.02;;
60006;SDS011;45863;50.336;3.536;2022-12-18T03:23:09;67.47;;;29.65;;
60006;SDS011;45863;50.336;3.536;2022-12-18T03:25:35;64.28;;;29.30;;
60006;SDS011;45863;50.336;3.536;2022-12-18T03:28:02;68.32;;;29.88;;
60006;SDS011;45863;50.336;3.536;2022-12-18T03:30:28;63.95;;;28.73;;
60006;SDS011;45863;50.336;3.536;2022-12-18T03:35:24;61.80;;;26.00;;
60006;SDS011;45863;50.336;3.536;2022-12-18T03:37:51;63.15;;;28.67;;
60006;SDS011;45863;50.336;3.536;2022-12-18T03:40:16;72.97;;;30.77;;
60006;SDS011;45863;50.336;3.536;2022-12-18T03:42:48;76.20;;;30.63;;
60006;SDS011;45863;50.336;3.536;2022-12-18T03:45:28;62.20;;;27.13;;
60006;SDS011;45863;50.336;3.536;2022-12-18T03:53:24;54.92;;;25.55;;
60006;SDS011;45863;50.336;3.536;2022-12-18T03:55:51;62.38;;;26.00;;
60006;SDS011;45863;50.336;3.536;2022-12-18T03:58:17;55.50;;;25.65;;
60006;SDS011;45863;50.336;3.536;2022-12-18T04:00:43;61.47;;;26.38;;
60006;SDS011;45863;50.336;3.536;2022-12-18T04:03:08;58.22;;;24.80;;
60006;SDS011;45863;50.336;3.536;2022-12-18T04:05:35;51.38;;;24.80;;
60006;SDS011;45863;50.336;3.536;2022-12-18T04:08:00;54.83;;;24.88;;
60006;SDS011;45863;50.336;3.536;2022-12-18T04:10:26;60.70;;;26.10;;
60006;SDS011;45863;50.336;3.536;2022-12-18T04:12:52;53.20;;;25.08;;
60006;SDS011;45863;50.336;3.536;2022-12-18T04:15:20;58.15;;;26.05;;
60006;SDS011;45863;50.336;3.536;2022-12-18T04:17:48;65.63;;;27.88;;
60006;SDS011;45863;50.336;3.536;2022-12-18T04:20:14;59.03;;;25.83;;
60006;SDS011;45863;50.336;3.536;2022-12-18T04:22:39;52.88;;;25.38;;
60006;SDS011;45863;50.336;3.536;2022-12-18T04:25:05;46.50;;;19.85;;
60006;SDS011;45863;50.336;3.536;2022-12-18T04:27:30;40.20;;;18.17;;
60006;SDS011;45863;50.336;3.536;2022-12-18T04:29:55;42.25;;;18.00;;
60006;SDS011;45863;50.336;3.536;2022-12-18T04:32:20;46.08;;;19.90;;
60006;SDS011;45863;50.336;3.536;2022-12-18T04:34:46;46.08;;;19.45;;
60006;SDS011;45863;50.336;3.536;2022-12-18T04:37:11;46.50;;;20.25;;
60006;SDS011;45863;50.336;3.536;2022-12-18T04:39:36;44.53;;;19.65;;
60006;SDS011;45863;50.336;3.536;2022-12-18T04:42:02;57.95;;;25.23;;
60006;SDS011;45863;50.336;3.536;2022-12-18T04:44:27;55.20;;;26.58;;
60006;SDS011;45863;50.336;3.536;2022-12-18T04:46:52;49.28;;;22.35;;
60006;SDS011;45863;50.336;3.536;2022-12-18T04:49:17;51.80;;;22.70;;
60006;SDS011;45863;50.336;3.536;2022-12-18T04:51:43;46.03;;;22.52;;
60006;SDS011;45863;50.336;3.536;2022-12-18T04:54:08;53.67;;;24.52;;
60006;SDS011;45863;50.336;3.536;2022-12-18T04:56:33;55.35;;;26.08;;
60006;SDS011;45863;50.336;3.536;2022-12-18T04:58:58;55.50;;;24.85;;
60006;SDS011;45863;50.336;3.536;2022-12-18T05:01:23;118.10;;;45.33;;
60006;SDS011;45863;50.336;3.536;2022-12-18T05:03:50;59.22;;;26.83;;
60006;SDS011;45863;50.336;3.536;2022-12-18T05:06:15;69.13;;;29.08;;
60006;SDS011;45863;50.336;3.536;2022-12-18T05:08:40;54.15;;;24.73;;
60006;SDS011;45863;50.336;3.536;2022-12-18T05:11:07;56.03;;;23.40;;
60006;SDS011;45863;50.336;3.536;2022-12-18T05:13:32;46.55;;;20.50;;
60006;SDS011;45863;50.336;3.536;2022-12-18T05:15:57;43.28;;;20.98;;
60006;SDS011;45863;50.336;3.536;2022-12-18T05:18:23;51.33;;;21.25;;
60006;SDS011;45863;50.336;3.536;2022-12-18T05:20:49;43.95;;;18.55;;
60006;SDS011;45863;50.336;3.536;2022-12-18T05:23:14;36.28;;;18.20;;
60006;SDS011;45863;50.336;3.536;2022-12-18T05:25:39;40.80;;;18.80;;
60006;SDS011;45863;50.336;3.536;2022-12-18T05:28:04;37.50;;;16.98;;
60006;SDS011;45863;50.336;3.536;2022-12-18T05:30:30;40.40;;;17.35;;
60006;SDS011;45863;50.336;3.536;2022-12-18T05:32:55;38.40;;;17.85;;
60006;SDS011;45863;50.336;3.536;2022-12-18T05:35:21;43.70;;;18.90;;
60006;SDS011;45863;50.336;3.536;2022-12-18T05:37:46;35.90;;;18.15;;
60006;SDS011;45863;50.336;3.536;2022-12-18T05:40:11;47.72;;;20.80;;
60006;SDS011;45863;50.336;3.536;2022-12-18T05:42:37;44.70;;;19.60;;
60006;SDS011;45863;50.336;3.536;2022-12-18T05:45:02;41.88;;;20.38;;
60006;SDS011;45863;50.336;3.536;2022-12-18T05:47:28;40.20;;;18.77;;
60006;SDS011;45863;50.336;3.536;2022-12-18T05:49:53;43.25;;;20.40;;
60006;SDS011;45863;50.336;3.536;2022-12-18T05:52:19;41.58;;;18.48;;
60006;SDS011;45863;50.336;3.536;2022-12-18T05:54:44;41.65;;;17.95;;
60006;SDS011;45863;50.336;3.536;2022-12-18T05:57:09;39.75;;;18.23;;
60006;SDS011;45863;50.336;3.536;2022-12-18T05:59:35;52.40;;;23.10;;
60006;SDS011;45863;50.336;3.536;2022-12-18T06:02:00;66.07;;;24.90;;
60006;SDS011;45863;50.336;3.536;2022-12-18T06:04:26;50.55;;;23.25;;
60006;SDS011;45863;50.336;3.536;2022-12-18T06:06:52;44.22;;;20.55;;
60006;SDS011;45863;50.336;3.536;2022-12-18T06:09:17;50.28;;;22.48;;
60006;SDS011;45863;50.336;3.536;2022-12-18T06:11:42;58.58;;;24.60;;
60006;SDS011;45863;50.336;3.536;2022-12-18T06:14:08;46.92;;;21.17;;
60006;SDS011;45863;50.336;3.536;2022-12-18T06:16:34;39.22;;;18.90;;
60006;SDS011;45863;50.336;3.536;2022-12-18T06:19:00;43.13;;;19.65;;
60006;SDS011;45863;50.336;3.536;2022-12-18T06:21:26;40.88;;;19.17;;
60006;SDS011;45863;50.336;3.536;2022-12-18T06:23:52;43.38;;;19.27;;
60006;SDS011;45863;50.336;3.536;2022-12-18T06:26:17;44.97;;;20.92;;
60006;SDS011;45863;50.336;3.536;2022-12-18T06:28:42;48.67;;;19.90;;
60006;SDS011;45863;50.336;3.536;2022-12-18T06:31:08;38.53;;;18.55;;
60006;SDS011;45863;50.336;3.536;2022-12-18T06:33:33;37.97;;;17.95;;
60006;SDS011;45863;50.336;3.536;2022-12-18T06:35:59;40.83;;;18.85;;
60006;SDS011;45863;50.336;3.536;2022-12-18T06:38:25;39.38;;;17.50;;
60006;SDS011;45863;50.336;3.536;2022-12-18T06:40:50;37.80;;;17.08;;
60006;SDS011;45863;50.336;3.536;2022-12-18T06:43:15;40.85;;;18.05;;
60006;SDS011;45863;50.336;3.536;2022-12-18T06:45:40;37.83;;;17.45;;
60006;SDS011;45863;50.336;3.536;2022-12-18T06:48:06;37.25;;;17.50;;
60006;SDS011;45863;50.336;3.536;2022-12-18T06:50:31;37.38;;;17.23;;
60006;SDS011;45863;50.336;3.536;2022-12-18T06:52:56;34.50;;;16.20;;
60006;SDS011;45863;50.336;3.536;2022-12-18T06:55:21;36.85;;;16.90;;
60006;SDS011;45863;50.336;3.536;2022-12-18T06:57:47;35.38;;;16.75;;
60006;SDS011;45863;50.336;3.536;2022-12-18T07:00:12;38.33;;;17.13;;
60006;SDS011;45863;50.336;3.536;2022-12-18T07:02:38;41.63;;;18.45;;
60006;SDS011;45863;50.336;3.536;2022-12-18T07:05:04;37.22;;;17.73;;
60006;SDS011;45863;50.336;3.536;2022-12-18T07:07:29;39.90;;;17.52;;
60006;SDS011;45863;50.336;3.536;2022-12-18T07:09:54;36.95;;;17.55;;
60006;SDS011;45863;50.336;3.536;2022-12-18T07:12:20;38.22;;;17.98;;
60006;SDS011;45863;50.336;3.536;2022-12-18T07:14:45;37.80;;;17.88;;
60006;SDS011;45863;50.336;3.536;2022-12-18T07:17:10;44.83;;;19.15;;
60006;SDS011;45863;50.336;3.536;2022-12-18T07:19:35;42.75;;;20.17;;
60006;SDS011;45863;50.336;3.536;2022-12-18T07:22:00;42.58;;;19.02;;
60006;SDS011;45863;50.336;3.536;2022-12-18T07:24:26;42.17;;;18.92;;
60006;SDS011;45863;50.336;3.536;2022-12-18T07:26:51;41.05;;;20.02;;
60006;SDS011;45863;50.336;3.536;2022-12-18T07:29:16;35.15;;;17.58;;
60006;SDS011;45863;50.336;3.536;2022-12-18T07:31:41;42.85;;;19.65;;
60006;SDS011;45863;50.336;3.536;2022-12-18T07:34:11;41.58;;;19.27;;
60006;SDS011;45863;50.336;3.536;2022-12-18T07:36:36;42.25;;;18.67;;
60006;SDS011;45863;50.336;3.536;2022-12-18T07:39:01;39.80;;;19.42;;
60006;SDS011;45863;50.336;3.536;2022-12-18T07:41:27;42.78;;;18.88;;
60006;SDS011;45863;50.336;3.536;2022-12-18T07:43:52;41.30;;;21.05;;
60006;SDS011;45863;50.336;3.536;2022-12-18T07:46:17;39.97;;;19.65;;
60006;SDS011;45863;50.336;3.536;2022-12-18T07:48:43;37.42;;;18.83;;
60006;SDS011;45863;50.336;3.536;2022-12-18T07:51:08;43.13;;;20.58;;
60006;SDS011;45863;50.336;3.536;2022-12-18T07:53:34;40.60;;;19.35;;
60006;SDS011;45863;50.336;3.536;2022-12-18T07:56:01;40.75;;;19.75;;
60006;SDS011;45863;50.336;3.536;2022-12-18T07:58:27;39.60;;;19.48;;
60006;SDS011;45863;50.336;3.536;2022-12-18T08:00:52;44.40;;;19.40;;
60006;SDS011;45863;50.336;3.536;2022-12-18T08:03:18;45.35;;;20.55;;
60006;SDS011;45863;50.336;3.536;2022-12-18T08:05:43;41.38;;;19.55;;
60006;SDS011;45863;50.336;3.536;2022-12-18T08:08:08;41.33;;;19.10;;
60006;SDS011;45863;50.336;3.536;2022-12-18T08:10:33;44.03;;;20.30;;
60006;SDS011;45863;50.336;3.536;2022-12-18T08:12:58;42.30;;;19.15;;
60006;SDS011;45863;50.336;3.536;2022-12-18T08:15:24;36.70;;;17.52;;
60006;SDS011;45863;50.336;3.536;2022-12-18T08:17:49;40.53;;;19.90;;
60006;SDS011;45863;50.336;3.536;2022-12-18T08:20:14;41.47;;;19.00;;
60006;SDS011;45863;50.336;3.536;2022-12-18T08:22:40;35.35;;;18.00;;
60006;SDS011;45863;50.336;3.536;2022-12-18T08:25:06;39.88;;;19.45;;
60006;SDS011;45863;50.336;3.536;2022-12-18T08:27:31;39.47;;;20.05;;
60006;SDS011;45863;50.336;3.536;2022-12-18T08:29:57;36.70;;;18.90;;
60006;SDS011;45863;50.336;3.536;2022-12-18T08:32:22;44.45;;;20.85;;
60006;SDS011;45863;50.336;3.536;2022-12-18T08:34:48;40.08;;;20.10;;
60006;SDS011;45863;50.336;3.536;2022-12-18T08:37:13;42.72;;;22.63;;
60006;SDS011;45863;50.336;3.536;2022-12-18T08:39:38;42.72;;;20.05;;
60006;SDS011;45863;50.336;3.536;2022-12-18T08:42:03;40.00;;;19.80;;
60006;SDS011;45863;50.336;3.536;2022-12-18T08:44:47;40.45;;;19.33;;
60006;SDS011;45863;50.336;3.536;2022-12-18T08:47:13;40.78;;;19.00;;
60006;SDS011;45863;50.336;3.536;2022-12-18T08:49:38;39.47;;;18.13;;
60006;SDS011;45863;50.336;3.536;2022-12-18T08:52:03;37.25;;;19.40;;
60006;SDS011;45863;50.336;3.536;2022-12-18T08:54:29;38.53;;;19.15;;
60006;SDS011;45863;50.336;3.536;2022-12-18T08:56:54;40.65;;;19.27;;
60006;SDS011;45863;50.336;3.536;2022-12-18T08:59:19;38.03;;;18.60;;
60006;SDS011;45863;50.336;3.536;2022-12-18T09:01:45;38.50;;;18.35;;
60006;SDS011;45863;50.336;3.536;2022-12-18T09:04:10;37.95;;;19.17;;
60006;SDS011;45863;50.336;3.536;2022-12-18T09:06:36;38.97;;;19.35;;
60006;SDS011;45863;50.336;3.536;2022-12-18T09:09:01;38.90;;;18.90;;
60006;SDS011;45863;50.336;3.536;2022-12-18T09:11:27;40.05;;;19.48;;
60006;SDS011;45863;50.336;3.536;2022-12-18T09:13:53;41.03;;;21.27;;
60006;SDS011;45863;50.336;3.536;2022-12-18T09:16:19;46.05;;;21.25;;
60006;SDS011;45863;50.336;3.536;2022-12-18T09:18:44;42.95;;;21.60;;
60006;SDS011;45863;50.336;3.536;2022-12-18T09:21:14;38.92;;;20.25;;
60006;SDS011;45863;50.336;3.536;2022-12-18T09:23:40;43.10;;;21.25;;
60006;SDS011;45863;50.336;3.536;2022-12-18T09:26:05;41.10;;;21.00;;
60006;SDS011;45863;50.336;3.536;2022-12-18T09:28:31;41.72;;;22.17;;
60006;SDS011;45863;50.336;3.536;2022-12-18T09:30:56;47.35;;;21.58;;
60006;SDS011;45863;50.336;3.536;2022-12-18T09:33:21;46.53;;;21.63;;
60006;SDS011;45863;50.336;3.536;2022-12-18T09:35:46;48.22;;;22.05;;
60006;SDS011;45863;50.336;3.536;2022-12-18T09:38:13;45.15;;;24.52;;
60006;SDS011;45863;50.336;3.536;2022-12-18T09:40:42;48.38;;;22.10;;
60006;SDS011;45863;50.336;3.536;2022-12-18T09:43:10;47.08;;;22.65;;
60006;SDS011;45863;50.336;3.536;2022-12-18T09:45:40;49.40;;;23.95;;
60006;SDS011;45863;50.336;3.536;2022-12-18T09:48:10;55.63;;;25.13;;
60006;SDS011;45863;50.336;3.536;2022-12-18T09:50:39;50.45;;;23.15;;
60006;SDS011;45863;50.336;3.536;2022-12-18T09:53:19;48.28;;;22.05;;
60006;SDS011;45863;50.336;3.536;2022-12-18T09:55:45;50.10;;;23.30;;
60006;SDS011;45863;50.336;3.536;2022-12-18T09:58:24;49.00;;;23.38;;
60006;SDS011;45863;50.336;3.536;2022-12-18T10:00:53;52.78;;;25.13;;
60006;SDS011;45863;50.336;3.536;2022-12-18T10:03:19;52.30;;;23.65;;
60006;SDS011;45863;50.336;3.536;2022-12-18T10:10:57;50.92;;;24.33;;
60006;SDS011;45863;50.336;3.536;2022-12-18T10:15:51;52.03;;;25.20;;
60006;SDS011;45863;50.336;3.536;2022-12-18T10:20:55;51.58;;;24.00;;
60006;SDS011;45863;50.336;3.536;2022-12-18T10:28:16;55.97;;;25.98;;
60006;SDS011;45863;50.336;3.536;2022-12-18T10:30:41;53.45;;;23.80;;
60006;SDS011;45863;50.336;3.536;2022-12-18T10:33:11;54.08;;;25.15;;
60006;SDS011;45863;50.336;3.536;2022-12-18T10:35:37;54.13;;;25.40;;
60006;SDS011;45863;50.336;3.536;2022-12-18T10:40:31;52.78;;;24.52;;
60006;SDS011;45863;50.336;3.536;2022-12-18T10:43:14;51.13;;;23.20;;
60006;SDS011;45863;50.336;3.536;2022-12-18T10:45:40;50.38;;;23.90;;
60006;SDS011;45863;50.336;3.536;2022-12-18T10:48:17;50.70;;;23.50;;
60006;SDS011;45863;50.336;3.536;2022-12-18T10:50:42;58.25;;;25.00;;
60006;SDS011;45863;50.336;3.536;2022-12-18T10:53:13;60.00;;;26.23;;
60006;SDS011;45863;50.336;3.536;2022-12-18T10:55:44;55.40;;;24.77;;
60006;SDS011;45863;50.336;3.536;2022-12-18T11:00:39;53.00;;;24.15;;
60006;SDS011;45863;50.336;3.536;2022-12-18T11:03:07;53.78;;;25.42;;
60006;SDS011;45863;50.336;3.536;2022-12-18T11:05:49;58.38;;;25.15;;
60006;SDS011;45863;50.336;3.536;2022-12-18T11:08:25;52.35;;;24.55;;
60006;SDS011;45863;50.336;3.536;2022-12-18T11:10:51;60.55;;;26.17;;
60006;SDS011;45863;50.336;3.536;2022-12-18T11:13:21;56.28;;;23.63;;
60006;SDS011;45863;50.336;3.536;2022-12-18T11:15:46;55.85;;;25.25;;
60006;SDS011;45863;50.336;3.536;2022-12-18T11:18:45;58.88;;;25.95;;
60006;SDS011;45863;50.336;3.536;2022-12-18T11:23:28;56.53;;;25.15;;
60006;SDS011;45863;50.336;3.536;2022-12-18T11:25:57;53.60;;;24.17;;
60006;SDS011;45863;50.336;3.536;2022-12-18T11:28:27;51.85;;;23.95;;
60006;SDS011;45863;50.336;3.536;2022-12-18T11:33:38;58.03;;;25.17;;
60006;SDS011;45863;50.336;3.536;2022-12-18T11:36:05;54.97;;;24.25;;
60006;SDS011;45863;50.336;3.536;2022-12-18T11:38:34;54.53;;;25.63;;
60006;SDS011;45863;50.336;3.536;2022-12-18T11:43:50;61.90;;;25.77;;
60006;SDS011;45863;50.336;3.536;2022-12-18T11:46:19;58.55;;;24.13;;
60006;SDS011;45863;50.336;3.536;2022-12-18T11:48:55;50.07;;;19.00;;
60006;SDS011;45863;50.336;3.536;2022-12-18T11:51:43;59.35;;;26.45;;
60006;SDS011;45863;50.336;3.536;2022-12-18T11:54:14;54.13;;;25.50;;
60006;SDS011;45863;50.336;3.536;2022-12-18T11:56:46;54.50;;;23.88;;
60006;SDS011;45863;50.336;3.536;2022-12-18T11:59:18;50.67;;;22.90;;
60006;SDS011;45863;50.336;3.536;2022-12-18T12:01:57;55.78;;;23.90;;
60006;SDS011;45863;50.336;3.536;2022-12-18T12:09:38;62.63;;;26.65;;
60006;SDS011;45863;50.336;3.536;2022-12-18T12:17:09;53.55;;;24.25;;
60006;SDS011;45863;50.336;3.536;2022-12-18T12:19:51;52.58;;;24.75;;
60006;SDS011;45863;50.336;3.536;2022-12-18T12:22:24;55.85;;;25.05;;
60006;SDS011;45863;50.336;3.536;2022-12-18T12:40:31;56.80;;;24.42;;
60006;SDS011;45863;50.336;3.536;2022-12-18T12:42:59;52.97;;;23.52;;
60006;SDS011;45863;50.336;3.536;2022-12-18T12:45:57;56.50;;;23.77;;
60006;SDS011;45863;50.336;3.536;2022-12-18T12:48:40;57.85;;;24.92;;
60006;SDS011;45863;50.336;3.536;2022-12-18T12:51:08;55.83;;;23.00;;
60006;SDS011;45863;50.336;3.536;2022-12-18T12:53:35;55.17;;;23.73;;
60006;SDS011;45863;50.336;3.536;2022-12-18T12:56:02;59.30;;;25.02;;
60006;SDS011;45863;50.336;3.536;2022-12-18T13:06:14;58.38;;;25.33;;
60006;SDS011;45863;50.336;3.536;2022-12-18T13:08:51;50.33;;;24.00;;
60006;SDS011;45863;50.336;3.536;2022-12-18T13:11:30;52.33;;;25.73;;
60006;SDS011;45863;50.336;3.536;2022-12-18T13:14:31;56.05;;;24.80;;
60006;SDS011;45863;50.336;3.536;2022-12-18T13:19:42;50.17;;;23.15;;
60006;SDS011;45863;50.336;3.536;2022-12-18T13:22:29;51.95;;;23.80;;
60006;SDS011;45863;50.336;3.536;2022-12-18T13:24:53;63.90;;;25.98;;
60006;SDS011;45863;50.336;3.536;2022-12-18T13:30:11;59.13;;;24.20;;
60006;SDS011;45863;50.336;3.536;2022-12-18T13:32:47;59.67;;;25.83;;
60006;SDS011;45863;50.336;3.536;2022-12-18T13:37:53;63.58;;;25.42;;
60006;SDS011;45863;50.336;3.536;2022-12-18T13:43:13;59.67;;;24.63;;
60006;SDS011;45863;50.336;3.536;2022-12-18T13:45:40;55.42;;;21.92;;
60006;SDS011;45863;50.336;3.536;2022-12-18T13:48:13;60.95;;;25.65;;
60006;SDS011;45863;50.336;3.536;2022-12-18T13:50:39;56.70;;;24.02;;
60006;SDS011;45863;50.336;3.536;2022-12-18T13:53:04;52.70;;;23.88;;
60006;SDS011;45863;50.336;3.536;2022-12-18T13:55:30;55.92;;;24.00;;
60006;SDS011;45863;50.336;3.536;2022-12-18T13:58:04;58.05;;;24.90;;
60006;SDS011;45863;50.336;3.536;2022-12-18T14:00:31;51.63;;;22.50;;
60006;SDS011;45863;50.336;3.536;2022-12-18T14:02:57;55.72;;;24.30;;
60006;SDS011;45863;50.336;3.536;2022-12-18T14:05:29;61.17;;;26.13;;
60006;SDS011;45863;50.336;3.536;2022-12-18T14:07:55;54.78;;;23.60;;
60006;SDS011;45863;50.336;3.536;2022-12-18T14:10:23;54.10;;;23.83;;
60006;SDS011;45863;50.336;3.536;2022-12-18T14:12:49;55.28;;;24.23;;
60006;SDS011;45863;50.336;3.536;2022-12-18T14:17:49;63.43;;;24.43;;
60006;SDS011;45863;50.336;3.536;2022-12-18T14:20:15;55.42;;;22.95;;
60006;SDS011;45863;50.336;3.536;2022-12-18T14:22:43;54.28;;;22.95;;
60006;SDS011;45863;50.336;3.536;2022-12-18T14:25:19;56.70;;;24.10;;
60006;SDS011;45863;50.336;3.536;2022-12-18T14:31:01;56.92;;;23.73;;
60006;SDS011;45863;50.336;3.536;2022-12-18T14:33:02;55.78;;;23.80;;
60006;SDS011;45863;50.336;3.536;2022-12-18T14:35:27;54.58;;;22.73;;
60006;SDS011;45863;50.336;3.536;2022-12-18T14:37:53;52.83;;;22.77;;
60006;SDS011;45863;50.336;3.536;2022-12-18T14:40:18;53.08;;;23.48;;
60006;SDS011;45863;50.336;3.536;2022-12-18T14:42:44;57.13;;;24.27;;
60006;SDS011;45863;50.336;3.536;2022-12-18T14:47:53;52.25;;;21.67;;
60006;SDS011;45863;50.336;3.536;2022-12-18T14:50:18;52.28;;;21.92;;
60006;SDS011;45863;50.336;3.536;2022-12-18T14:52:43;49.58;;;22.95;;
60006;SDS011;45863;50.336;3.536;2022-12-18T14:55:16;58.63;;;24.50;;
60006;SDS011;45863;50.336;3.536;2022-12-18T14:57:41;53.83;;;22.95;;
60006;SDS011;45863;50.336;3.536;2022-12-18T15:00:16;52.63;;;23.60;;
60006;SDS011;45863;50.336;3.536;2022-12-18T15:02:41;53.60;;;24.00;;
60006;SDS011;45863;50.336;3.536;2022-12-18T15:10:17;54.10;;;22.10;;
60006;SDS011;45863;50.336;3.536;2022-12-18T15:18:02;59.60;;;22.98;;
60006;SDS011;45863;50.336;3.536;2022-12-18T15:20:27;59.92;;;24.63;;
60006;SDS011;45863;50.336;3.536;2022-12-18T15:22:55;59.25;;;22.38;;
60006;SDS011;45863;50.336;3.536;2022-12-18T15:25:26;51.80;;;22.02;;
60006;SDS011;45863;50.336;3.536;2022-12-18T15:27:52;57.05;;;23.23;;
60006;SDS011;45863;50.336;3.536;2022-12-18T15:30:19;51.65;;;23.00;;
60006;SDS011;45863;50.336;3.536;2022-12-18T15:32:44;57.22;;;24.17;;
60006;SDS011;45863;50.336;3.536;2022-12-18T15:37:38;58.85;;;25.00;;
60006;SDS011;45863;50.336;3.536;2022-12-18T15:40:03;48.83;;;21.92;;
60006;SDS011;45863;50.336;3.536;2022-12-18T15:42:29;54.53;;;23.30;;
60006;SDS011;45863;50.336;3.536;2022-12-18T15:45:13;48.95;;;21.70;;
60006;SDS011;45863;50.336;3.536;2022-12-18T15:47:38;54.53;;;23.60;;
60006;SDS011;45863;50.336;3.536;2022-12-18T15:50:04;50.22;;;23.52;;
60006;SDS011;45863;50.336;3.536;2022-12-18T15:52:29;53.05;;;23.17;;
60006;SDS011;45863;50.336;3.536;2022-12-18T15:54:55;56.67;;;23.48;;
60006;SDS011;45863;50.336;3.536;2022-12-18T15:57:38;56.75;;;23.38;;
60006;SDS011;45863;50.336;3.536;2022-12-18T16:00:04;57.30;;;24.30;;
60006;SDS011;45863;50.336;3.536;2022-12-18T16:02:29;54.83;;;23.52;;
60006;SDS011;45863;50.336;3.536;2022-12-18T16:04:54;52.50;;;23.23;;
60006;SDS011;45863;50.336;3.536;2022-12-18T16:07:20;54.13;;;22.40;;
60006;SDS011;45863;50.336;3.536;2022-12-18T16:09:45;56.20;;;22.27;;
60006;SDS011;45863;50.336;3.536;2022-12-18T16:12:15;55.33;;;22.33;;
60006;SDS011;45863;50.336;3.536;2022-12-18T16:14:40;54.00;;;22.23;;
60006;SDS011;45863;50.336;3.536;2022-12-18T16:17:09;50.60;;;22.33;;
60006;SDS011;45863;50.336;3.536;2022-12-18T16:19:35;54.03;;;23.48;;
60006;SDS011;45863;50.336;3.536;2022-12-18T16:22:03;54.57;;;22.50;;